createdAt,value
2019-03-05T00:00:31.199Z,60.50
2019-03-05T00:05:22.106Z,61.00
2019-03-05T00:10:13.760Z,61.50
2019-03-05T00:15:05.601Z,61.50
2019-03-05T00:19:56.516Z,61.60
2019-03-05T00:24:55.587Z,61.60
2019-03-05T00:30:02.525Z,60.40
2019-03-05T00:35:04.627Z,60.50
2019-03-05T00:45:25.503Z,61.10
2019-03-05T00:50:27.643Z,61.50
2019-03-05T00:55:21.488Z,61.60
2019-03-05T01:05:41.419Z,60.00
2019-03-05T01:10:32.329Z,60.20
2019-03-05T01:15:24.013Z,61.00
2019-03-05T01:20:14.929Z,61.00
2019-03-05T01:25:05.859Z,61.30
2019-03-05T01:29:56.783Z,61.20
2019-03-05T01:34:47.723Z,61.70
2019-03-05T01:39:41.574Z,60.20
2019-03-05T01:44:32.477Z,59.80
2019-03-05T01:49:24.135Z,60.60
2019-03-05T01:54:15.051Z,60.50
2019-03-05T01:59:05.938Z,60.70
2019-03-05T02:03:57.577Z,61.10
2019-03-05T02:08:49.214Z,60.90
2019-03-05T02:13:40.917Z,60.00
2019-03-05T02:18:31.801Z,60.00
2019-03-05T02:28:46.498Z,60.40
2019-03-05T02:33:52.378Z,61.20
2019-03-05T02:44:29.182Z,61.50
2019-03-05T02:49:22.079Z,61.50
2019-03-05T02:54:22.009Z,60.50
2019-03-05T02:59:12.846Z,60.30
2019-03-05T03:04:04.722Z,60.90
2019-03-05T03:09:05.768Z,61.50
2019-03-05T03:13:57.424Z,61.90
2019-03-05T03:18:49.075Z,61.90
2019-03-05T03:23:39.969Z,61.80
2019-03-05T03:28:31.597Z,60.50
2019-03-05T03:33:23.246Z,61.00
2019-03-05T03:38:14.882Z,61.50
2019-03-05T03:43:06.505Z,61.80
2019-03-05T03:47:58.317Z,62.10
2019-03-05T03:52:49.242Z,62.10
2019-03-05T03:57:40.132Z,62.50
2019-03-05T04:02:31.030Z,61.50
2019-03-05T04:07:21.927Z,60.90
2019-03-05T04:12:13.577Z,61.80
2019-03-05T04:17:04.496Z,61.80
2019-03-05T04:21:55.473Z,62.30
2019-03-05T04:26:46.377Z,62.50
2019-03-05T04:31:37.310Z,62.90
2019-03-05T04:36:28.208Z,62.90
2019-03-05T04:41:19.132Z,62.10
2019-03-05T04:46:14.997Z,62.00
2019-03-05T04:51:05.904Z,62.40
2019-03-05T04:55:56.823Z,63.50
2019-03-05T05:00:47.718Z,63.20
2019-03-05T05:05:38.617Z,63.40
2019-03-05T05:10:29.526Z,63.90
2019-03-05T05:15:20.509Z,62.70
2019-03-05T05:20:12.231Z,62.40
2019-03-05T05:25:03.127Z,62.40
2019-03-05T05:29:54.029Z,62.90
2019-03-05T05:34:44.941Z,63.20
2019-03-05T05:39:48.537Z,63.50
2019-03-05T05:44:40.168Z,63.20
2019-03-05T05:49:31.867Z,62.30
2019-03-05T05:54:23.638Z,62.40
2019-03-05T05:59:15.285Z,62.90
2019-03-05T06:04:06.196Z,62.90
2019-03-05T06:08:57.833Z,63.40
2019-03-05T06:13:49.484Z,63.60
2019-03-05T06:18:40.380Z,63.60
2019-03-05T06:23:32.029Z,62.50
2019-03-05T06:28:23.685Z,62.80
2019-03-05T06:33:14.653Z,62.20
2019-03-05T06:38:05.620Z,63.20
2019-03-05T06:42:56.516Z,62.90
2019-03-05T06:47:48.164Z,63.50
2019-03-05T06:52:39.085Z,63.40
2019-03-05T06:57:30.053Z,63.80
2019-03-05T07:02:20.963Z,62.50
2019-03-05T07:07:11.876Z,61.90
2019-03-05T07:12:08.590Z,62.30
2019-03-05T07:17:04.125Z,63.10
2019-03-05T07:27:23.725Z,63.20
2019-03-05T07:32:15.399Z,62.70
2019-03-05T07:37:06.296Z,62.70
2019-03-05T07:41:57.941Z,61.70
2019-03-05T07:46:48.827Z,61.70
2019-03-05T07:51:39.729Z,62.30
2019-03-05T07:56:30.639Z,62.20
2019-03-05T08:01:22.666Z,62.90
2019-03-05T08:06:12.538Z,63.10
2019-03-05T08:11:03.473Z,62.90
2019-03-05T08:16:02.565Z,61.80
2019-03-05T08:20:45.347Z,61.40
2019-03-05T08:25:36.991Z,62.10
2019-03-05T08:30:29.591Z,62.20
2019-03-05T08:35:26.122Z,62.80
2019-03-05T08:40:17.077Z,62.30
2019-03-05T08:45:08.050Z,62.20
2019-03-05T08:49:59.761Z,60.20
2019-03-05T08:54:50.684Z,60.20
2019-03-05T08:59:41.671Z,60.60
2019-03-05T09:04:32.578Z,61.00
2019-03-05T09:09:23.472Z,61.30
2019-03-05T09:14:15.122Z,61.50
2019-03-05T09:19:06.203Z,61.50
2019-03-05T09:23:57.119Z,60.90
2019-03-05T09:28:48.015Z,59.80
2019-03-05T09:33:38.947Z,60.10
2019-03-05T09:38:29.844Z,60.50
2019-03-05T09:43:20.738Z,60.60
2019-03-05T09:48:11.678Z,60.90
2019-03-05T09:53:02.560Z,60.80
2019-03-05T09:57:54.244Z,59.10
2019-03-05T10:02:45.134Z,59.00
2019-03-05T10:07:36.034Z,58.90
2019-03-05T10:12:30.091Z,59.80
2019-03-05T10:17:19.426Z,60.00
2019-03-05T10:22:10.314Z,60.00
2019-03-05T10:27:01.951Z,59.30
2019-03-05T10:31:53.585Z,58.60
2019-03-05T10:36:45.225Z,58.30
2019-03-05T10:41:36.909Z,58.80
2019-03-05T10:46:27.797Z,58.80
2019-03-05T10:51:18.729Z,58.90
2019-03-05T10:56:09.622Z,59.40
2019-03-05T11:01:01.253Z,58.70
2019-03-05T11:05:52.884Z,56.70
2019-03-05T11:10:44.524Z,57.90
2019-03-05T11:15:36.170Z,58.30
2019-03-05T11:20:27.112Z,58.30
2019-03-05T11:25:18.015Z,58.60
2019-03-05T11:30:09.709Z,58.90
2019-03-05T11:35:01.674Z,58.60
2019-03-05T11:39:55.335Z,56.40
2019-03-05T11:44:54.479Z,57.30
2019-03-05T11:49:35.221Z,57.30
2019-03-05T11:54:26.113Z,57.80
2019-03-05T11:59:17.732Z,58.70
2019-03-05T12:04:09.368Z,58.50
2019-03-05T12:09:01.008Z,57.90
2019-03-05T12:13:52.642Z,57.10
2019-03-05T12:18:44.272Z,57.50
2019-03-05T12:23:35.172Z,57.50
2019-03-05T12:28:26.061Z,57.40
2019-03-05T12:33:16.953Z,58.30
2019-03-05T12:38:07.855Z,59.00
2019-03-05T12:42:59.513Z,58.90
2019-03-05T12:47:50.393Z,58.90
2019-03-05T12:52:41.298Z,58.00
2019-03-05T12:57:32.206Z,57.80
2019-03-05T13:02:23.123Z,58.20
2019-03-05T13:07:14.167Z,58.10
2019-03-05T13:12:04.942Z,58.70
2019-03-05T13:16:55.836Z,58.40
2019-03-05T13:21:48.600Z,58.20
2019-03-05T13:26:41.095Z,58.20
2019-03-05T13:31:29.353Z,58.20
2019-03-05T13:36:20.511Z,58.20
2019-03-05T13:41:15.443Z,57.80
2019-03-05T13:46:03.317Z,57.70
2019-03-05T13:56:37.802Z,55.60
2019-03-05T14:01:28.546Z,55.70
2019-03-05T14:06:23.937Z,56.40
2019-03-05T14:11:14.846Z,56.30
2019-03-05T14:16:05.753Z,56.80
2019-03-05T14:20:56.673Z,57.40
2019-03-05T14:25:47.623Z,56.20
2019-03-05T14:30:38.581Z,56.40
2019-03-05T14:35:29.469Z,56.80
2019-03-05T14:40:24.614Z,57.10
2019-03-05T14:45:14.006Z,56.80
2019-03-05T14:50:05.667Z,56.10
2019-03-05T14:54:56.718Z,56.00
2019-03-05T14:59:47.682Z,55.50
2019-03-05T15:04:38.605Z,56.10
2019-03-05T15:09:29.487Z,57.10
2019-03-05T15:14:20.426Z,56.70
2019-03-05T15:19:20.947Z,56.50
2019-03-05T15:24:02.361Z,56.20
2019-03-05T15:28:56.474Z,55.90
2019-03-05T15:33:44.295Z,56.60
2019-03-05T15:38:35.255Z,57.30
2019-03-05T15:43:26.941Z,59.20
2019-03-05T15:48:17.947Z,59.80
2019-03-05T15:53:08.906Z,59.40
2019-03-05T15:57:59.781Z,57.50
2019-03-05T16:02:50.698Z,57.00
2019-03-05T16:07:43.895Z,58.40
2019-03-05T16:12:33.356Z,59.60
2019-03-05T16:17:27.956Z,59.60
2019-03-05T16:22:18.257Z,60.00
2019-03-05T16:27:06.231Z,60.20
2019-03-05T16:31:58.089Z,59.70
2019-03-05T16:36:49.982Z,59.70
2019-03-05T16:41:40.934Z,60.20
2019-03-05T16:46:38.772Z,60.70
2019-03-05T16:51:30.536Z,61.30
2019-03-05T16:56:26.372Z,62.10
2019-03-05T17:01:17.269Z,61.40
2019-03-05T17:06:14.401Z,60.60
2019-03-05T17:11:06.899Z,61.00
2019-03-05T17:15:57.810Z,61.00
2019-03-05T17:20:48.765Z,61.50
2019-03-05T17:25:40.389Z,61.80
2019-03-05T17:30:31.295Z,61.80
2019-03-05T17:35:22.197Z,61.70
2019-03-05T17:40:13.115Z,61.00
2019-03-05T17:45:04.009Z,60.80
2019-03-05T17:49:54.936Z,61.10
2019-03-05T17:54:45.902Z,61.60
2019-03-05T17:59:36.821Z,62.50
2019-03-05T18:04:27.746Z,61.80
2019-03-05T18:09:19.466Z,61.00
2019-03-05T18:14:10.709Z,61.00
2019-03-05T18:19:01.717Z,60.60
2019-03-05T18:23:52.647Z,60.80
2019-03-05T18:28:43.671Z,61.30
2019-03-05T18:33:34.679Z,61.60
2019-03-05T18:38:25.589Z,61.90
2019-03-05T18:43:16.524Z,62.30
2019-03-05T18:48:07.420Z,62.20
2019-03-05T18:52:58.306Z,61.10
2019-03-05T18:57:49.215Z,61.10
2019-03-05T19:02:40.867Z,61.80
2019-03-05T19:07:31.774Z,61.80
2019-03-05T19:12:22.709Z,61.90
2019-03-05T19:17:13.606Z,61.80
2019-03-05T19:22:05.246Z,61.90
2019-03-05T19:26:56.887Z,60.80
2019-03-05T19:31:47.797Z,60.70
2019-03-05T19:36:39.507Z,61.30
2019-03-05T19:41:30.421Z,61.20
2019-03-05T19:46:21.343Z,61.40
2019-03-05T19:51:13.016Z,61.80
2019-03-05T19:56:03.929Z,62.40
2019-03-05T20:01:10.550Z,61.70
2019-03-05T20:06:01.453Z,61.70
2019-03-05T20:10:52.385Z,60.70
2019-03-05T20:15:43.299Z,60.90
2019-03-05T20:20:34.201Z,61.10
2019-03-05T20:25:26.004Z,61.30
2019-03-05T20:30:17.671Z,62.00
2019-03-05T20:35:08.590Z,62.00
2019-03-05T20:39:59.496Z,62.60
2019-03-05T20:44:51.144Z,61.00
2019-03-05T20:49:42.048Z,61.00
2019-03-05T20:54:33.708Z,61.50
2019-03-05T20:59:24.614Z,61.50
2019-03-05T21:04:15.581Z,61.70
2019-03-05T21:09:06.544Z,61.90
2019-03-05T21:13:57.465Z,62.00
2019-03-05T21:18:49.103Z,62.30
2019-03-05T21:23:40.746Z,61.00
2019-03-05T21:28:31.719Z,61.00
2019-03-05T21:33:22.808Z,60.70
2019-03-05T21:38:13.663Z,61.00
2019-03-05T21:43:04.672Z,61.40
2019-03-05T21:47:55.607Z,61.70
2019-03-05T21:52:46.513Z,61.90
2019-03-05T21:57:37.413Z,62.40
2019-03-05T22:02:28.317Z,62.80
2019-03-05T22:07:19.636Z,61.50
2019-03-05T22:12:10.589Z,60.70
2019-03-05T22:17:01.537Z,60.90
2019-03-05T22:21:53.338Z,61.60
2019-03-05T22:26:44.339Z,61.60
2019-03-05T22:31:35.345Z,61.80
2019-03-05T22:36:26.375Z,62.10
2019-03-05T22:41:17.623Z,62.40
2019-03-05T22:46:08.747Z,62.20
2019-03-05T22:50:59.673Z,60.90
2019-03-05T22:55:50.592Z,60.60
2019-03-05T23:00:42.639Z,60.90
2019-03-05T23:05:33.571Z,61.20
2019-03-05T23:10:24.537Z,61.60
2019-03-05T23:15:15.501Z,62.00
2019-03-05T23:20:07.322Z,62.20
2019-03-05T23:24:58.929Z,62.70
2019-03-05T23:29:49.908Z,61.80
2019-03-05T23:34:42.499Z,60.90
2019-03-05T23:39:31.836Z,60.90
2019-03-05T23:44:22.779Z,61.20
2019-03-05T23:49:13.786Z,61.50
2019-03-05T23:54:04.701Z,61.70
2019-03-05T23:58:55.730Z,62.10
